sensor_id;sensor_type;location;lat;lon;timestamp;P1;durP1;ratioP1;P2;durP2;ratioP2
76962;SDS011;65902;51.452;7.198;2024-03-23T06:10:22;2.90;;;2.70;;
76962;SDS011;65902;51.452;7.198;2024-03-23T06:11:23;4.38;;;3.97;;
76962;SDS011;65902;51.452;7.198;2024-03-23T06:12:23;4.18;;;3.47;;
76962;SDS011;65902;51.452;7.198;2024-03-23T06:13:23;5.70;;;3.05;;
76962;SDS011;65902;51.452;7.198;2024-03-23T06:14:30;6.35;;;2.92;;
76962;SDS011;65902;51.452;7.198;2024-03-23T06:15:33;5.07;;;4.63;;
76962;SDS011;65902;51.452;7.198;2024-03-23T06:16:38;5.50;;;4.43;;
76962;SDS011;65902;51.452;7.198;2024-03-23T06:17:38;6.80;;;6.35;;
76962;SDS011;65902;51.452;7.198;2024-03-23T06:18:39;4.70;;;4.40;;
76962;SDS011;65902;51.452;7.198;2024-03-23T06:19:39;4.95;;;4.65;;
76962;SDS011;65902;51.452;7.198;2024-03-23T06:20:40;3.53;;;3.33;;
76962;SDS011;65902;51.452;7.198;2024-03-23T06:21:44;3.80;;;3.47;;
76962;SDS011;65902;51.452;7.198;2024-03-23T06:22:45;3.72;;;3.42;;
76962;SDS011;65902;51.452;7.198;2024-03-23T06:23:45;3.95;;;3.42;;
76962;SDS011;65902;51.452;7.198;2024-03-23T06:24:51;4.88;;;4.13;;
76962;SDS011;65902;51.452;7.198;2024-03-23T06:25:52;7.45;;;4.55;;
76962;SDS011;65902;51.452;7.198;2024-03-23T06:26:52;3.55;;;3.33;;
76962;SDS011;65902;51.452;7.198;2024-03-23T06:27:53;3.83;;;3.40;;
76962;SDS011;65902;51.452;7.198;2024-03-23T06:28:53;4.95;;;4.43;;
76962;SDS011;65902;51.452;7.198;2024-03-23T06:29:54;4.57;;;2.67;;
76962;SDS011;65902;51.452;7.198;2024-03-23T06:30:55;7.97;;;5.25;;
76962;SDS011;65902;51.452;7.198;2024-03-23T06:31:55;4.05;;;3.75;;
76962;SDS011;65902;51.452;7.198;2024-03-23T06:32:55;6.05;;;5.40;;
76962;SDS011;65902;51.452;7.198;2024-03-23T06:33:56;5.50;;;5.10;;
76962;SDS011;65902;51.452;7.198;2024-03-23T06:34:56;12.27;;;5.65;;
76962;SDS011;65902;51.452;7.198;2024-03-23T06:35:59;6.32;;;5.35;;
76962;SDS011;65902;51.452;7.198;2024-03-23T06:36:59;4.55;;;4.20;;
76962;SDS011;65902;51.452;7.198;2024-03-23T06:38:00;7.07;;;5.93;;
76962;SDS011;65902;51.452;7.198;2024-03-23T06:39:00;6.07;;;5.13;;
76962;SDS011;65902;51.452;7.198;2024-03-23T06:40:01;8.43;;;5.30;;
76962;SDS011;65902;51.452;7.198;2024-03-23T06:41:02;6.05;;;5.00;;
76962;SDS011;65902;51.452;7.198;2024-03-23T06:42:07;5.55;;;4.82;;
76962;SDS011;65902;51.452;7.198;2024-03-23T06:43:08;5.45;;;5.05;;
76962;SDS011;65902;51.452;7.198;2024-03-23T06:44:09;3.75;;;3.42;;
76962;SDS011;65902;51.452;7.198;2024-03-23T06:45:09;5.93;;;5.47;;
76962;SDS011;65902;51.452;7.198;2024-03-23T06:46:12;10.35;;;6.80;;
76962;SDS011;65902;51.452;7.198;2024-03-23T06:47:13;4.60;;;4.05;;
76962;SDS011;65902;51.452;7.198;2024-03-23T06:48:13;6.40;;;5.80;;
76962;SDS011;65902;51.452;7.198;2024-03-23T06:49:14;4.43;;;4.03;;
76962;SDS011;65902;51.452;7.198;2024-03-23T06:50:15;5.70;;;5.22;;
76962;SDS011;65902;51.452;7.198;2024-03-23T06:51:17;11.18;;;5.32;;
76962;SDS011;65902;51.452;7.198;2024-03-23T06:55:53;6.07;;;5.53;;
76962;SDS011;65902;51.452;7.198;2024-03-23T06:56:54;7.32;;;6.72;;
76962;SDS011;65902;51.452;7.198;2024-03-23T06:57:55;4.30;;;3.53;;
76962;SDS011;65902;51.452;7.198;2024-03-23T06:58:56;7.18;;;5.53;;
76962;SDS011;65902;51.452;7.198;2024-03-23T06:59:57;6.03;;;5.53;;
76962;SDS011;65902;51.452;7.198;2024-03-23T07:00:57;7.03;;;6.43;;
76962;SDS011;65902;51.452;7.198;2024-03-23T07:02:02;4.07;;;3.70;;
76962;SDS011;65902;51.452;7.198;2024-03-23T07:03:03;16.55;;;6.72;;
76962;SDS011;65902;51.452;7.198;2024-03-23T07:04:04;6.68;;;5.97;;
76962;SDS011;65902;51.452;7.198;2024-03-23T07:05:05;5.75;;;5.25;;
76962;SDS011;65902;51.452;7.198;2024-03-23T07:06:05;5.40;;;4.57;;
76962;SDS011;65902;51.452;7.198;2024-03-23T07:07:07;4.65;;;4.25;;
76962;SDS011;65902;51.452;7.198;2024-03-23T07:08:07;4.90;;;4.47;;
76962;SDS011;65902;51.452;7.198;2024-03-23T07:09:12;8.75;;;7.93;;
76962;SDS011;65902;51.452;7.198;2024-03-23T07:10:12;6.05;;;3.58;;
76962;SDS011;65902;51.452;7.198;2024-03-23T07:11:19;8.02;;;6.22;;
76962;SDS011;65902;51.452;7.198;2024-03-23T07:12:23;4.82;;;2.72;;
76962;SDS011;65902;51.452;7.198;2024-03-23T07:17:55;4.93;;;4.50;;
76962;SDS011;65902;51.452;7.198;2024-03-23T07:18:56;5.47;;;5.00;;
76962;SDS011;65902;51.452;7.198;2024-03-23T07:19:57;7.05;;;5.35;;
76962;SDS011;65902;51.452;7.198;2024-03-23T07:20:57;6.03;;;5.45;;
76962;SDS011;65902;51.452;7.198;2024-03-23T07:21:58;8.70;;;6.00;;
76962;SDS011;65902;51.452;7.198;2024-03-23T07:22:58;7.50;;;6.28;;
76962;SDS011;65902;51.452;7.198;2024-03-23T07:23:59;5.88;;;5.30;;
76962;SDS011;65902;51.452;7.198;2024-03-23T07:25:00;7.35;;;5.30;;
76962;SDS011;65902;51.452;7.198;2024-03-23T07:26:04;5.63;;;5.07;;
76962;SDS011;65902;51.452;7.198;2024-03-23T07:27:08;7.72;;;5.85;;
76962;SDS011;65902;51.452;7.198;2024-03-23T07:28:14;9.18;;;5.45;;
76962;SDS011;65902;51.452;7.198;2024-03-23T07:29:15;8.77;;;5.60;;
76962;SDS011;65902;51.452;7.198;2024-03-23T07:30:25;5.50;;;4.97;;
76962;SDS011;65902;51.452;7.198;2024-03-23T07:31:32;6.93;;;6.22;;
76962;SDS011;65902;51.452;7.198;2024-03-23T07:32:33;13.40;;;9.65;;
76962;SDS011;65902;51.452;7.198;2024-03-23T07:33:34;4.95;;;4.47;;
76962;SDS011;65902;51.452;7.198;2024-03-23T07:34:37;6.88;;;6.28;;
76962;SDS011;65902;51.452;7.198;2024-03-23T07:35:38;7.25;;;6.53;;
76962;SDS011;65902;51.452;7.198;2024-03-23T07:36:38;10.95;;;6.50;;
76962;SDS011;65902;51.452;7.198;2024-03-23T07:37:39;6.20;;;5.57;;
76962;SDS011;65902;51.452;7.198;2024-03-23T07:38:42;6.45;;;4.07;;
76962;SDS011;65902;51.452;7.198;2024-03-23T07:39:43;5.60;;;3.78;;
76962;SDS011;65902;51.452;7.198;2024-03-23T07:40:43;6.72;;;6.13;;
76962;SDS011;65902;51.452;7.198;2024-03-23T07:42:02;8.70;;;6.38;;
76962;SDS011;65902;51.452;7.198;2024-03-23T07:43:02;10.38;;;6.20;;
76962;SDS011;65902;51.452;7.198;2024-03-23T07:44:03;9.35;;;5.78;;
76962;SDS011;65902;51.452;7.198;2024-03-23T07:45:10;5.30;;;4.65;;
76962;SDS011;65902;51.452;7.198;2024-03-23T07:46:13;8.15;;;4.13;;
76962;SDS011;65902;51.452;7.198;2024-03-23T07:47:14;7.22;;;6.32;;
76962;SDS011;65902;51.452;7.198;2024-03-23T07:48:14;13.63;;;6.78;;
76962;SDS011;65902;51.452;7.198;2024-03-23T07:49:14;5.55;;;4.95;;
76962;SDS011;65902;51.452;7.198;2024-03-23T07:50:16;7.40;;;5.80;;
76962;SDS011;65902;51.452;7.198;2024-03-23T07:51:25;6.70;;;6.03;;
76962;SDS011;65902;51.452;7.198;2024-03-23T07:52:28;6.95;;;5.75;;
76962;SDS011;65902;51.452;7.198;2024-03-23T07:53:29;7.95;;;5.65;;
76962;SDS011;65902;51.452;7.198;2024-03-23T07:54:33;6.97;;;4.57;;
76962;SDS011;65902;51.452;7.198;2024-03-23T07:55:35;6.13;;;5.60;;
76962;SDS011;65902;51.452;7.198;2024-03-23T07:56:38;7.68;;;5.72;;
76962;SDS011;65902;51.452;7.198;2024-03-23T07:57:38;6.38;;;5.25;;
76962;SDS011;65902;51.452;7.198;2024-03-23T07:58:40;5.03;;;4.60;;
76962;SDS011;65902;51.452;7.198;2024-03-23T07:59:40;5.78;;;5.28;;
76962;SDS011;65902;51.452;7.198;2024-03-23T08:00:42;7.38;;;4.85;;
76962;SDS011;65902;51.452;7.198;2024-03-23T08:01:42;5.45;;;4.95;;
76962;SDS011;65902;51.452;7.198;2024-03-23T08:02:43;6.03;;;4.85;;
76962;SDS011;65902;51.452;7.198;2024-03-23T08:03:44;10.18;;;4.57;;
76962;SDS011;65902;51.452;7.198;2024-03-23T08:04:45;4.70;;;4.10;;
76962;SDS011;65902;51.452;7.198;2024-03-23T08:05:49;4.05;;;3.60;;
76962;SDS011;65902;51.452;7.198;2024-03-23T08:06:50;6.15;;;4.82;;
76962;SDS011;65902;51.452;7.198;2024-03-23T08:07:50;5.97;;;5.32;;
76962;SDS011;65902;51.452;7.198;2024-03-23T08:08:52;3.97;;;3.35;;
76962;SDS011;65902;51.452;7.198;2024-03-23T08:09:59;6.35;;;5.75;;
76962;SDS011;65902;51.452;7.198;2024-03-23T08:11:00;4.63;;;4.22;;
76962;SDS011;65902;51.452;7.198;2024-03-23T08:12:01;6.47;;;5.45;;
76962;SDS011;65902;51.452;7.198;2024-03-23T08:13:02;5.60;;;5.10;;
76962;SDS011;65902;51.452;7.198;2024-03-23T08:14:06;5.22;;;4.55;;
76962;SDS011;65902;51.452;7.198;2024-03-23T08:15:07;5.90;;;4.20;;
76962;SDS011;65902;51.452;7.198;2024-03-23T08:16:08;6.30;;;4.68;;
76962;SDS011;65902;51.452;7.198;2024-03-23T08:17:13;5.65;;;5.15;;
76962;SDS011;65902;51.452;7.198;2024-03-23T08:18:14;7.85;;;5.25;;
76962;SDS011;65902;51.452;7.198;2024-03-23T08:19:15;14.00;;;4.90;;
76962;SDS011;65902;51.452;7.198;2024-03-23T08:20:16;3.53;;;3.25;;
76962;SDS011;65902;51.452;7.198;2024-03-23T08:21:18;4.38;;;3.95;;
76962;SDS011;65902;51.452;7.198;2024-03-23T08:22:19;6.65;;;3.80;;
76962;SDS011;65902;51.452;7.198;2024-03-23T08:23:19;6.57;;;3.00;;
76962;SDS011;65902;51.452;7.198;2024-03-23T08:24:20;4.43;;;3.75;;
76962;SDS011;65902;51.452;7.198;2024-03-23T08:25:20;8.23;;;4.72;;
76962;SDS011;65902;51.452;7.198;2024-03-23T08:26:21;5.90;;;5.10;;
76962;SDS011;65902;51.452;7.198;2024-03-23T08:27:21;7.95;;;4.28;;
76962;SDS011;65902;51.452;7.198;2024-03-23T08:28:22;9.80;;;3.85;;
76962;SDS011;65902;51.452;7.198;2024-03-23T08:30:08;6.03;;;3.88;;
76962;SDS011;65902;51.452;7.198;2024-03-23T08:31:10;6.40;;;5.82;;
76962;SDS011;65902;51.452;7.198;2024-03-23T08:32:13;7.30;;;5.63;;
76962;SDS011;65902;51.452;7.198;2024-03-23T08:33:14;3.60;;;3.30;;
76962;SDS011;65902;51.452;7.198;2024-03-23T08:34:14;4.13;;;3.83;;
76962;SDS011;65902;51.452;7.198;2024-03-23T08:35:15;5.85;;;4.53;;
76962;SDS011;65902;51.452;7.198;2024-03-23T08:36:15;5.22;;;4.85;;
76962;SDS011;65902;51.452;7.198;2024-03-23T08:37:18;7.20;;;5.85;;
76962;SDS011;65902;51.452;7.198;2024-03-23T08:38:19;3.58;;;3.33;;
76962;SDS011;65902;51.452;7.198;2024-03-23T08:39:20;4.22;;;3.92;;
76962;SDS011;65902;51.452;7.198;2024-03-23T08:40:21;3.60;;;3.17;;
76962;SDS011;65902;51.452;7.198;2024-03-23T08:41:22;7.75;;;4.80;;
76962;SDS011;65902;51.452;7.198;2024-03-23T08:43:29;5.10;;;3.65;;
76962;SDS011;65902;51.452;7.198;2024-03-23T08:44:31;5.75;;;3.97;;
76962;SDS011;65902;51.452;7.198;2024-03-23T08:45:31;4.72;;;4.32;;
76962;SDS011;65902;51.452;7.198;2024-03-23T08:46:32;6.05;;;3.38;;
76962;SDS011;65902;51.452;7.198;2024-03-23T08:47:36;3.78;;;3.00;;
76962;SDS011;65902;51.452;7.198;2024-03-23T08:48:41;5.53;;;2.97;;
76962;SDS011;65902;51.452;7.198;2024-03-23T08:49:46;4.18;;;3.88;;
76962;SDS011;65902;51.452;7.198;2024-03-23T08:51:02;4.72;;;3.58;;
76962;SDS011;65902;51.452;7.198;2024-03-23T08:52:02;4.65;;;4.25;;
76962;SDS011;65902;51.452;7.198;2024-03-23T08:53:03;3.92;;;3.63;;
76962;SDS011;65902;51.452;7.198;2024-03-23T08:54:07;9.38;;;5.43;;
76962;SDS011;65902;51.452;7.198;2024-03-23T08:55:15;5.60;;;4.40;;
76962;SDS011;65902;51.452;7.198;2024-03-23T08:57:42;9.60;;;2.72;;
76962;SDS011;65902;51.452;7.198;2024-03-23T08:58:45;6.15;;;3.33;;
76962;SDS011;65902;51.452;7.198;2024-03-23T09:00:25;2.75;;;2.55;;
76962;SDS011;65902;51.452;7.198;2024-03-23T09:01:29;4.10;;;2.55;;
76962;SDS011;65902;51.452;7.198;2024-03-23T09:02:32;5.95;;;3.67;;
76962;SDS011;65902;51.452;7.198;2024-03-23T09:03:34;4.13;;;3.72;;
76962;SDS011;65902;51.452;7.198;2024-03-23T09:04:38;5.47;;;4.05;;
76962;SDS011;65902;51.452;7.198;2024-03-23T09:05:51;13.27;;;3.55;;
76962;SDS011;65902;51.452;7.198;2024-03-23T09:07:12;4.43;;;3.20;;
76962;SDS011;65902;51.452;7.198;2024-03-23T09:08:16;2.35;;;2.15;;
76962;SDS011;65902;51.452;7.198;2024-03-23T09:09:16;3.28;;;2.63;;
76962;SDS011;65902;51.452;7.198;2024-03-23T09:10:38;2.70;;;2.50;;
76962;SDS011;65902;51.452;7.198;2024-03-23T09:12:11;3.92;;;2.72;;
76962;SDS011;65902;51.452;7.198;2024-03-23T09:13:30;3.25;;;2.95;;
76962;SDS011;65902;51.452;7.198;2024-03-23T09:16:18;3.42;;;3.13;;
76962;SDS011;65902;51.452;7.198;2024-03-23T09:17:37;6.68;;;2.85;;
76962;SDS011;65902;51.452;7.198;2024-03-23T09:18:53;2.47;;;2.28;;
76962;SDS011;65902;51.452;7.198;2024-03-23T09:20:07;3.90;;;3.55;;
76962;SDS011;65902;51.452;7.198;2024-03-23T09:21:12;3.90;;;3.42;;
76962;SDS011;65902;51.452;7.198;2024-03-23T09:22:39;2.33;;;2.20;;
76962;SDS011;65902;51.452;7.198;2024-03-23T09:23:45;3.22;;;2.85;;
76962;SDS011;65902;51.452;7.198;2024-03-23T09:24:47;2.95;;;2.75;;
76962;SDS011;65902;51.452;7.198;2024-03-23T09:25:47;6.05;;;3.00;;
76962;SDS011;65902;51.452;7.198;2024-03-23T09:28:27;2.50;;;2.30;;
76962;SDS011;65902;51.452;7.198;2024-03-23T09:29:28;6.72;;;6.32;;
76962;SDS011;65902;51.452;7.198;2024-03-23T09:30:29;2.55;;;2.35;;
76962;SDS011;65902;51.452;7.198;2024-03-23T09:31:40;4.78;;;1.98;;
76962;SDS011;65902;51.452;7.198;2024-03-23T09:34:23;2.90;;;2.65;;
76962;SDS011;65902;51.452;7.198;2024-03-23T09:36:04;3.92;;;2.40;;
76962;SDS011;65902;51.452;7.198;2024-03-23T09:37:28;4.00;;;3.80;;
76962;SDS011;65902;51.452;7.198;2024-03-23T09:38:29;2.22;;;2.13;;
76962;SDS011;65902;51.452;7.198;2024-03-23T09:39:50;3.63;;;3.33;;
76962;SDS011;65902;51.452;7.198;2024-03-23T09:40:52;5.40;;;3.13;;
76962;SDS011;65902;51.452;7.198;2024-03-23T09:41:56;3.30;;;2.88;;
76962;SDS011;65902;51.452;7.198;2024-03-23T09:43:14;2.40;;;2.20;;
76962;SDS011;65902;51.452;7.198;2024-03-23T09:46:20;2.92;;;2.70;;
76962;SDS011;65902;51.452;7.198;2024-03-23T11:01:35;2.25;;;1.88;;
76962;SDS011;65902;51.452;7.198;2024-03-23T11:02:35;2.10;;;1.90;;
76962;SDS011;65902;51.452;7.198;2024-03-23T11:03:40;1.65;;;1.55;;
76962;SDS011;65902;51.452;7.198;2024-03-23T11:04:44;1.58;;;1.48;;
76962;SDS011;65902;51.452;7.198;2024-03-23T11:05:47;1.15;;;1.10;;
76962;SDS011;65902;51.452;7.198;2024-03-23T11:06:48;20.55;;;1.83;;
76962;SDS011;65902;51.452;7.198;2024-03-23T11:07:50;2.92;;;2.05;;
76962;SDS011;65902;51.452;7.198;2024-03-23T11:08:51;1.42;;;1.33;;
76962;SDS011;65902;51.452;7.198;2024-03-23T11:09:52;1.67;;;1.58;;
76962;SDS011;65902;51.452;7.198;2024-03-23T11:10:53;5.90;;;2.15;;
76962;SDS011;65902;51.452;7.198;2024-03-23T11:13:23;4.68;;;1.77;;
76962;SDS011;65902;51.452;7.198;2024-03-23T11:14:24;1.10;;;1.08;;
76962;SDS011;65902;51.452;7.198;2024-03-23T11:15:28;1.80;;;1.65;;
76962;SDS011;65902;51.452;7.198;2024-03-23T11:16:30;2.05;;;1.58;;
76962;SDS011;65902;51.452;7.198;2024-03-23T11:17:32;5.85;;;3.15;;
76962;SDS011;65902;51.452;7.198;2024-03-23T11:18:35;1.90;;;1.80;;
76962;SDS011;65902;51.452;7.198;2024-03-23T11:19:35;1.88;;;1.77;;
76962;SDS011;65902;51.452;7.198;2024-03-23T11:20:36;2.10;;;1.98;;
76962;SDS011;65902;51.452;7.198;2024-03-23T11:21:55;2.17;;;2.05;;
76962;SDS011;65902;51.452;7.198;2024-03-23T11:22:56;2.38;;;2.17;;
76962;SDS011;65902;51.452;7.198;2024-03-23T11:24:13;2.35;;;2.25;;
76962;SDS011;65902;51.452;7.198;2024-03-23T11:25:20;3.30;;;3.10;;
76962;SDS011;65902;51.452;7.198;2024-03-23T11:26:21;2.00;;;1.90;;
76962;SDS011;65902;51.452;7.198;2024-03-23T11:27:21;2.17;;;1.98;;
76962;SDS011;65902;51.452;7.198;2024-03-23T11:28:25;2.33;;;2.22;;
76962;SDS011;65902;51.452;7.198;2024-03-23T11:29:26;3.13;;;2.92;;
76962;SDS011;65902;51.452;7.198;2024-03-23T11:30:32;2.03;;;1.92;;
76962;SDS011;65902;51.452;7.198;2024-03-23T11:31:32;1.90;;;1.77;;
76962;SDS011;65902;51.452;7.198;2024-03-23T11:32:33;1.67;;;1.58;;
76962;SDS011;65902;51.452;7.198;2024-03-23T11:33:36;2.17;;;2.08;;
76962;SDS011;65902;51.452;7.198;2024-03-23T11:38:14;2.40;;;2.22;;
76962;SDS011;65902;51.452;7.198;2024-03-23T11:39:16;2.35;;;2.22;;
76962;SDS011;65902;51.452;7.198;2024-03-23T11:40:21;1.50;;;1.40;;
76962;SDS011;65902;51.452;7.198;2024-03-23T11:41:24;1.58;;;1.48;;
76962;SDS011;65902;51.452;7.198;2024-03-23T11:42:27;1.90;;;1.65;;
76962;SDS011;65902;51.452;7.198;2024-03-23T11:43:40;1.73;;;1.63;;
76962;SDS011;65902;51.452;7.198;2024-03-23T11:44:43;2.03;;;1.83;;
76962;SDS011;65902;51.452;7.198;2024-03-23T11:45:45;1.60;;;1.35;;
76962;SDS011;65902;51.452;7.198;2024-03-23T11:46:52;1.35;;;1.25;;
76962;SDS011;65902;51.452;7.198;2024-03-23T11:48:05;1.65;;;1.55;;
76962;SDS011;65902;51.452;7.198;2024-03-23T11:49:06;1.90;;;1.80;;
76962;SDS011;65902;51.452;7.198;2024-03-23T11:50:06;2.08;;;1.88;;
76962;SDS011;65902;51.452;7.198;2024-03-23T11:51:08;22.00;;;2.08;;
76962;SDS011;65902;51.452;7.198;2024-03-23T11:52:09;1.58;;;1.48;;
76962;SDS011;65902;51.452;7.198;2024-03-23T11:53:12;1.23;;;1.13;;
76962;SDS011;65902;51.452;7.198;2024-03-23T11:55:13;2.00;;;1.80;;
76962;SDS011;65902;51.452;7.198;2024-03-23T11:56:14;3.85;;;1.95;;
76962;SDS011;65902;51.452;7.198;2024-03-23T11:57:14;1.58;;;1.45;;
76962;SDS011;65902;51.452;7.198;2024-03-23T11:58:16;1.92;;;1.83;;
76962;SDS011;65902;51.452;7.198;2024-03-23T11:59:29;3.28;;;3.08;;
76962;SDS011;65902;51.452;7.198;2024-03-23T12:00:30;2.13;;;1.95;;
76962;SDS011;65902;51.452;7.198;2024-03-23T12:01:33;2.58;;;2.20;;
76962;SDS011;65902;51.452;7.198;2024-03-23T12:02:33;1.65;;;1.55;;
76962;SDS011;65902;51.452;7.198;2024-03-23T12:03:37;1.63;;;1.52;;
76962;SDS011;65902;51.452;7.198;2024-03-23T12:04:37;2.70;;;1.98;;
76962;SDS011;65902;51.452;7.198;2024-03-23T12:05:38;2.28;;;1.45;;
76962;SDS011;65902;51.452;7.198;2024-03-23T12:06:39;4.38;;;1.95;;
76962;SDS011;65902;51.452;7.198;2024-03-23T12:07:39;2.08;;;1.88;;
76962;SDS011;65902;51.452;7.198;2024-03-23T12:08:40;1.75;;;1.65;;
76962;SDS011;65902;51.452;7.198;2024-03-23T12:09:43;1.80;;;1.70;;
76962;SDS011;65902;51.452;7.198;2024-03-23T12:10:53;2.08;;;1.70;;
76962;SDS011;65902;51.452;7.198;2024-03-23T12:12:04;2.40;;;2.00;;
76962;SDS011;65902;51.452;7.198;2024-03-23T12:13:05;3.25;;;1.98;;
76962;SDS011;65902;51.452;7.198;2024-03-23T12:14:06;2.55;;;1.92;;
76962;SDS011;65902;51.452;7.198;2024-03-23T12:15:09;2.97;;;1.65;;
76962;SDS011;65902;51.452;7.198;2024-03-23T12:16:13;6.28;;;2.17;;
